Time;durP1;ratioP1;P1;durP2;ratioP2;P2;SDS_P1;SDS_P2;PMS_P1;PMS_P2;Temp;Humidity;BMP_temperature;BMP_pressure;BME280_temperature;BME280_humidity;BME280_pressure;Samples;Min_cycle;Max_cycle;Signal;HPM_P1;HPM_P2
2022/12/10 00:02:11;;;;;;;38.83;19.98;;;;;;;-144.32;100.00;68061.97;10461631;28;20040;-80
2022/12/10 00:07:11;;;;;;;38.45;22.73;;;;;;;-144.32;100.00;68061.97;10486917;28;20037;-82
2022/12/10 00:12:12;;;;;;;35.00;19.60;;;;;;;-144.32;100.00;68061.97;10481696;28;20055;-76
2022/12/10 00:17:12;;;;;;;39.17;20.73;;;;;;;-144.32;100.00;68061.97;10498886;28;20044;-83
2022/12/10 00:22:13;;;;;;;35.15;21.20;;;;;;;-144.32;100.00;68061.97;10467197;28;20037;-82
2022/12/10 00:27:14;;;;;;;42.75;22.27;;;;;;;-144.32;100.00;68061.97;10456583;28;20037;-84
2022/12/10 00:32:14;;;;;;;36.85;20.95;;;;;;;-144.32;100.00;68061.97;10457826;28;20067;-85
2022/12/10 00:37:15;;;;;;;42.17;21.80;;;;;;;-144.32;100.00;68061.97;10432518;28;20056;-82
2022/12/10 00:42:16;;;;;;;38.22;21.70;;;;;;;-144.32;100.00;68061.97;10448912;28;20116;-84
2022/12/10 00:47:16;;;;;;;43.80;22.38;;;;;;;-144.32;100.00;68061.97;10470831;28;20106;-84
2022/12/10 00:52:17;;;;;;;39.65;21.45;;;;;;;-144.32;100.00;68061.97;10480617;28;20176;-84
2022/12/10 00:57:17;;;;;;;38.33;22.02;;;;;;;-144.32;100.00;68061.97;10478828;28;20113;-78
2022/12/10 01:02:20;;;;;;;44.58;23.60;;;;;;;-144.32;100.00;68061.97;10467000;28;20037;-77
2022/12/10 01:07:21;;;;;;;45.13;22.25;;;;;;;-144.32;100.00;68061.97;10464142;28;20032;-77
2022/12/10 01:12:25;;;;;;;52.85;23.83;;;;;;;-144.32;100.00;68061.97;10493425;28;20045;-76
2022/12/10 01:17:25;;;;;;;42.53;23.27;;;;;;;-144.32;100.00;68061.97;10529697;22;20175;-80
2022/12/10 01:22:26;;;;;;;41.50;22.27;;;;;;;-144.32;100.00;68061.97;10533612;28;20028;-77
2022/12/10 01:27:27;;;;;;;44.72;22.13;;;;;;;-144.32;100.00;68061.97;10521213;28;20025;-80
2022/12/10 01:32:29;;;;;;;46.78;22.58;;;;;;;-144.32;100.00;68061.97;10520820;28;20102;-80
2022/12/10 01:37:30;;;;;;;47.55;23.30;;;;;;;-144.32;100.00;68061.97;10533259;28;20054;-79
2022/12/10 01:42:31;;;;;;;44.88;22.42;;;;;;;-144.32;100.00;68061.97;10540565;28;20042;-78
2022/12/10 01:47:33;;;;;;;43.90;20.83;;;;;;;-144.32;100.00;68061.97;10538690;28;20358;-79
2022/12/10 01:52:33;;;;;;;41.53;21.05;;;;;;;-144.32;100.00;68061.97;10528386;28;20041;-79
2022/12/10 01:57:34;;;;;;;38.65;20.13;;;;;;;-144.32;100.00;68061.97;10497277;28;20045;-85
2022/12/10 02:02:42;;;;;;;38.90;20.45;;;;;;;-144.32;100.00;68061.97;10519349;28;20062;-82
2022/12/10 02:07:59;;;;;;;43.80;21.90;;;;;;;-144.32;100.00;68061.97;10557022;22;20141;-86
2022/12/10 02:13:20;;;;;;;49.22;23.95;;;;;;;-144.32;100.00;68061.97;10440744;28;20114;-76
2022/12/10 02:18:26;;;;;;;46.60;24.30;;;;;;;-144.32;100.00;68061.97;10448126;28;20022;-76
2022/12/10 02:23:32;;;;;;;55.17;25.38;;;;;;;-144.32;100.00;68061.97;10447068;28;20058;-83
2022/12/10 02:28:57;;;;;;;44.30;23.05;;;;;;;-144.32;100.00;68061.97;10412909;28;20052;-79
2022/12/10 02:34:01;;;;;;;46.92;23.27;;;;;;;-144.32;100.00;68061.97;10427672;28;20076;-80
2022/12/10 02:39:05;;;;;;;45.17;23.98;;;;;;;-144.32;100.00;68061.97;10434258;28;20030;-81
2022/12/10 02:44:11;;;;;;;44.60;21.58;;;;;;;-144.32;100.00;68061.97;10455933;28;20049;-81
2022/12/10 02:49:15;;;;;;;42.72;23.35;;;;;;;-144.32;100.00;68061.97;10478418;22;20096;-78
2022/12/10 02:54:37;;;;;;;48.15;23.58;;;;;;;-144.32;100.00;68061.97;10456773;28;20093;-77
2022/12/10 03:00:01;;;;;;;48.00;23.23;;;;;;;-144.32;100.00;68061.97;10441195;28;20096;-79
2022/12/10 03:05:26;;;;;;;48.10;25.17;;;;;;;-144.32;100.00;68061.97;10441112;28;20042;-82
2022/12/10 03:10:39;;;;;;;43.17;22.02;;;;;;;-144.32;100.00;68061.97;10428178;28;20037;-84
2022/12/10 03:15:42;;;;;;;43.97;23.17;;;;;;;-144.32;100.00;68061.97;10413971;28;20054;-82
2022/12/10 03:31:34;;;;;;;38.95;20.95;;;;;;;-144.32;100.00;68061.97;12089359;22;20049;-81
2022/12/10 03:36:38;;;;;;;39.22;21.33;;;;;;;-144.32;100.00;68061.97;10496764;28;20055;-86
2022/12/10 03:41:38;;;;;;;39.17;20.80;;;;;;;-144.32;100.00;68061.97;10408650;28;20053;-87
2022/12/10 03:46:40;;;;;;;45.13;22.95;;;;;;;-144.32;100.00;68061.97;10457633;28;20041;-86
2022/12/10 03:51:42;;;;;;;38.97;21.50;;;;;;;-144.32;100.00;68061.97;10457872;28;20053;-79
2022/12/10 03:56:42;;;;;;;41.67;23.35;;;;;;;-144.32;100.00;68061.97;10455748;28;20026;-81
2022/12/10 04:01:43;;;;;;;40.00;20.25;;;;;;;-144.32;100.00;68061.97;10447962;28;20040;-78
2022/12/10 04:06:44;;;;;;;40.97;21.63;;;;;;;-144.32;100.00;68061.97;10427360;28;20049;-87
2022/12/10 04:11:45;;;;;;;40.75;21.23;;;;;;;-144.32;100.00;68061.97;10435672;28;20033;-84
2022/12/10 04:16:49;;;;;;;43.15;20.83;;;;;;;-144.32;100.00;68061.97;10444020;28;20041;-85
2022/12/10 04:27:18;;;;;;;39.35;20.65;;;;;;;-144.32;100.00;68061.97;10430948;28;20055;-84
2022/12/10 04:32:19;;;;;;;37.92;20.00;;;;;;;-144.32;100.00;68061.97;10445327;28;20079;-87
2022/12/10 04:37:21;;;;;;;39.92;21.00;;;;;;;-144.32;100.00;68061.97;10436514;28;20044;-83
2022/12/10 04:42:23;;;;;;;40.50;20.95;;;;;;;-144.32;100.00;68061.97;10438762;28;20137;-83
2022/12/10 04:47:26;;;;;;;41.20;21.33;;;;;;;-144.32;100.00;68061.97;10419951;28;20082;-83
2022/12/10 04:52:29;;;;;;;40.15;20.58;;;;;;;-144.32;100.00;68061.97;10449659;28;20048;-89
2022/12/10 04:57:36;;;;;;;40.33;20.48;;;;;;;-144.32;100.00;68061.97;10478543;28;20101;-78
2022/12/10 05:02:39;;;;;;;34.20;20.08;;;;;;;-144.32;100.00;68061.97;10485998;28;20032;-77
2022/12/10 05:07:40;;;;;;;36.05;19.35;;;;;;;-144.32;100.00;68061.97;10469413;28;20021;-78
2022/12/10 05:12:41;;;;;;;38.17;19.73;;;;;;;-144.32;100.00;68061.97;10492426;22;20036;-79
2022/12/10 05:17:41;;;;;;;38.38;19.83;;;;;;;-144.32;100.00;68061.97;10500629;28;20082;-81
2022/12/10 05:28:02;;;;;;;38.83;19.73;;;;;;;-144.32;100.00;68061.97;10496778;28;20033;-87
2022/12/10 05:33:04;;;;;;;37.30;19.20;;;;;;;-144.32;100.00;68061.97;10506839;22;20063;-82
2022/12/10 05:43:38;;;;;;;39.60;19.95;;;;;;;-144.32;100.00;68061.97;10324767;28;20070;-83
2022/12/10 05:48:40;;;;;;;44.73;21.27;;;;;;;-144.32;100.00;68061.97;10312973;28;20133;-79
2022/12/10 05:53:41;;;;;;;38.35;20.98;;;;;;;-144.32;100.00;68061.97;10326361;28;20059;-82
2022/12/10 05:58:47;;;;;;;40.00;20.33;;;;;;;-144.32;100.00;68061.97;10324459;28;20121;-85
2022/12/10 06:03:49;;;;;;;36.58;19.20;;;;;;;-144.32;100.00;68061.97;10324207;28;20053;-82
2022/12/10 06:08:51;;;;;;;39.70;20.88;;;;;;;-144.32;100.00;68061.97;10335249;28;20124;-83
2022/12/10 06:13:56;;;;;;;41.25;21.00;;;;;;;-144.32;100.00;68061.97;10334538;28;20241;-85
2022/12/10 06:18:57;;;;;;;43.17;21.50;;;;;;;-144.32;100.00;68061.97;10325862;28;20043;-83
2022/12/10 06:23:57;;;;;;;38.15;19.77;;;;;;;-144.32;100.00;68061.97;10322199;28;20101;-82
2022/12/10 06:29:04;;;;;;;36.90;20.00;;;;;;;-144.32;100.00;68061.97;10400504;22;20030;-78
2022/12/10 06:34:05;;;;;;;42.08;20.73;;;;;;;-144.32;100.00;68061.97;10527872;28;20044;-77
2022/12/10 06:39:09;;;;;;;39.20;18.95;;;;;;;-144.32;100.00;68061.97;10528414;28;20029;-81
2022/12/10 06:44:10;;;;;;;40.25;21.33;;;;;;;-144.32;100.00;68061.97;10534002;28;20020;-79
2022/12/10 06:49:11;;;;;;;44.45;20.38;;;;;;;-144.32;100.00;68061.97;10533599;28;20059;-81
2022/12/10 06:54:11;;;;;;;45.22;21.20;;;;;;;-144.32;100.00;68061.97;10537391;28;20071;-82
2022/12/10 06:59:12;;;;;;;43.78;20.08;;;;;;;-144.32;100.00;68061.97;10515100;28;20070;-85
2022/12/10 07:04:14;;;;;;;46.50;19.58;;;;;;;-144.32;100.00;68061.97;10541803;22;20108;-85
2022/12/10 07:09:15;;;;;;;38.83;19.58;;;;;;;-144.32;100.00;68061.97;10530313;28;20055;-82
2022/12/10 07:31:02;;;;;;;40.47;20.27;;;;;;;-144.32;100.00;68061.97;10483679;23;20066;-80
2022/12/10 07:36:11;;;;;;;40.72;19.70;;;;;;;-144.32;100.00;68061.97;10359694;28;20038;-81
2022/12/10 07:41:13;;;;;;;44.30;21.42;;;;;;;-144.32;100.00;68061.97;10362190;28;20038;-82
2022/12/10 07:46:18;;;;;;;42.55;19.88;;;;;;;-144.32;100.00;68061.97;10374488;28;20058;-81
2022/12/10 07:51:20;;;;;;;45.42;21.80;;;;;;;-144.32;100.00;68061.97;10353976;28;20057;-83
2022/12/10 07:56:24;;;;;;;46.47;21.73;;;;;;;-144.32;100.00;68061.97;10323434;28;20053;-83
2022/12/10 08:01:26;;;;;;;40.60;19.75;;;;;;;-144.32;100.00;68061.97;10315607;28;20078;-82
2022/12/10 08:06:28;;;;;;;40.65;20.33;;;;;;;-144.32;100.00;68061.97;10316874;28;20054;-80
2022/12/10 08:11:29;;;;;;;45.43;21.17;;;;;;;-144.32;100.00;68061.97;10322487;28;20046;-83
2022/12/10 08:16:31;;;;;;;47.95;21.75;;;;;;;-144.32;100.00;68061.97;10346013;28;20281;-80
2022/12/10 08:21:32;;;;;;;40.50;19.42;;;;;;;-144.32;100.00;68061.97;10319831;28;20034;-82
2022/12/10 08:26:33;;;;;;;41.63;19.90;;;;;;;-144.32;100.00;68061.97;10295729;28;20043;-79
2022/12/10 08:31:34;;;;;;;38.00;18.45;;;;;;;-144.32;100.00;68061.97;10304948;28;20506;-79
2022/12/10 08:36:35;;;;;;;41.53;20.13;;;;;;;-144.32;100.00;68061.97;10296898;28;20046;-80
2022/12/10 08:41:36;;;;;;;40.70;19.85;;;;;;;-144.32;100.00;68061.97;10316805;28;20046;-79
2022/12/10 08:46:38;;;;;;;42.10;20.77;;;;;;;-144.32;100.00;68061.97;10326998;28;20049;-83
2022/12/10 08:51:39;;;;;;;41.67;19.80;;;;;;;-144.32;100.00;68061.97;10325964;28;20106;-81
2022/12/10 08:56:39;;;;;;;40.95;20.73;;;;;;;-144.32;100.00;68061.97;10330096;28;20054;-82
2022/12/10 09:01:41;;;;;;;43.45;20.95;;;;;;;-144.32;100.00;68061.97;10344834;28;20102;-83
2022/12/10 09:06:42;;;;;;;34.88;19.33;;;;;;;-144.32;100.00;68061.97;10342078;28;20031;-80
2022/12/10 09:11:43;;;;;;;36.22;18.25;;;;;;;-144.32;100.00;68061.97;10520793;22;20054;-79
2022/12/10 09:22:09;;;;;;;38.60;18.50;;;;;;;-144.32;100.00;68061.97;10394535;23;20034;-79
2022/12/10 09:27:12;;;;;;;39.95;19.38;;;;;;;-144.32;100.00;68061.97;10357084;28;20273;-78
2022/12/10 09:32:13;;;;;;;;;;;;;;;-144.32;100.00;68061.97;10350351;28;20042;-81
2022/12/10 09:37:13;;;;;;;38.17;18.98;;;;;;;-144.32;100.00;68061.97;10362131;28;19925;-78
2022/12/10 09:42:52;;;;;;;41.35;20.80;;;;;;;-144.32;100.00;68061.97;10370602;28;20041;-83
2022/12/10 09:48:04;;;;;;;41.08;20.52;;;;;;;-144.32;100.00;68061.97;10346991;28;20053;-80
2022/12/10 09:53:13;;;;;;;34.63;18.35;;;;;;;-144.32;100.00;68061.97;10338733;28;20376;-79
2022/12/10 09:58:20;;;;;;;38.70;20.80;;;;;;;-144.32;100.00;68061.97;10364758;28;20042;-80
2022/12/10 10:03:25;;;;;;;39.67;20.60;;;;;;;-144.32;100.00;68061.97;10355434;28;20015;-79
2022/12/10 10:08:39;;;;;;;46.45;22.15;;;;;;;-144.32;100.00;68061.97;10335619;28;20058;-80
2022/12/10 10:13:46;;;;;;;44.10;21.80;;;;;;;-144.32;100.00;68061.97;10313950;28;20039;-81
2022/12/10 10:18:57;;;;;;;36.10;20.30;;;;;;;-144.32;100.00;68061.97;10307044;28;20515;-80
2022/12/10 10:23:59;;;;;;;37.35;18.85;;;;;;;-144.32;100.00;68061.97;10324611;28;20484;-78
2022/12/10 10:29:06;;;;;;;37.13;19.33;;;;;;;-144.32;100.00;68061.97;10314633;28;20430;-80
2022/12/10 10:34:21;;;;;;;41.08;19.15;;;;;;;-144.32;100.00;68061.97;10309866;28;20395;-78
2022/12/10 10:39:29;;;;;;;39.42;20.55;;;;;;;-144.32;100.00;68061.97;10302867;28;20049;-78
2022/12/10 10:44:36;;;;;;;37.83;19.40;;;;;;;-144.32;100.00;68061.97;10313078;28;20479;-79
2022/12/10 10:49:43;;;;;;;39.67;21.88;;;;;;;-144.32;100.00;68061.97;10313247;28;20737;-79
2022/12/10 10:54:46;;;;;;;40.28;21.42;;;;;;;-144.32;100.00;68061.97;10310350;28;20042;-79
2022/12/10 10:59:47;;;;;;;40.45;21.15;;;;;;;-144.32;100.00;68061.97;10316060;28;20145;-77
2022/12/10 11:04:53;;;;;;;38.10;19.70;;;;;;;-144.32;100.00;68061.97;10315957;28;20049;-78
2022/12/10 11:09:55;;;;;;;38.22;20.60;;;;;;;-144.32;100.00;68061.97;10322220;28;20108;-80
2022/12/10 11:14:55;;;;;;;37.75;19.67;;;;;;;-144.32;100.00;68061.97;10329357;28;20050;-80
2022/12/10 11:20:08;;;;;;;40.95;21.13;;;;;;;-144.32;100.00;68061.97;10335597;28;20479;-77
2022/12/10 11:25:11;;;;;;;42.28;22.50;;;;;;;-144.32;100.00;68061.97;10315662;28;20042;-79
2022/12/10 11:30:22;;;;;;;43.28;21.73;;;;;;;-144.32;100.00;68061.97;10331450;28;20047;-81
2022/12/10 11:35:41;;;;;;;38.28;20.50;;;;;;;-144.32;100.00;68061.97;10321096;28;20427;-78
2022/12/10 11:40:50;;;;;;;42.35;21.30;;;;;;;-144.32;100.00;68061.97;10319300;28;20098;-78
2022/12/10 11:46:32;;;;;;;41.70;21.88;;;;;;;-144.32;100.00;68061.97;10312995;28;20046;-77
2022/12/10 11:51:44;;;;;;;41.67;22.80;;;;;;;-144.32;100.00;68061.97;10314696;28;20061;-78
2022/12/10 11:56:51;;;;;;;42.20;22.00;;;;;;;-144.32;100.00;68061.97;10318838;28;20050;-78
2022/12/10 12:02:29;;;;;;;41.58;21.40;;;;;;;-144.32;100.00;68061.97;10317770;28;20522;-79
2022/12/10 12:07:38;;;;;;;47.03;22.27;;;;;;;-144.32;100.00;68061.97;10320532;28;20100;-79
2022/12/10 12:12:51;;;;;;;42.80;22.08;;;;;;;-144.32;100.00;68061.97;10315642;28;20450;-78
2022/12/10 12:17:58;;;;;;;40.42;22.67;;;;;;;-144.32;100.00;68061.97;10318598;28;20078;-78
2022/12/10 12:23:34;;;;;;;49.33;23.20;;;;;;;-144.32;100.00;68061.97;10308787;28;20043;-78
2022/12/10 12:28:46;;;;;;;41.25;22.25;;;;;;;-144.32;100.00;68061.97;10285822;28;20047;-77
2022/12/10 12:33:50;;;;;;;45.85;23.15;;;;;;;-144.32;100.00;68061.97;10316339;28;20060;-78
2022/12/10 12:39:17;;;;;;;44.58;22.65;;;;;;;-144.32;100.00;68061.97;10320972;28;20039;-78
2022/12/10 12:44:53;;;;;;;47.72;23.65;;;;;;;-144.32;100.00;68061.97;10316685;28;20055;-77
2022/12/10 12:49:56;;;;;;;44.00;22.63;;;;;;;-144.32;100.00;68061.97;10312449;28;20129;-78
2022/12/10 12:55:02;;;;;;;43.75;22.38;;;;;;;-144.32;100.00;68061.97;10314765;28;20046;-78
2022/12/10 13:00:05;;;;;;;47.13;21.90;;;;;;;-144.32;100.00;68061.97;10314308;28;20117;-78
2022/12/10 13:05:14;;;;;;;47.00;22.58;;;;;;;-144.32;100.00;68061.97;10322573;28;20038;-78
2022/12/10 13:10:15;;;;;;;48.03;23.75;;;;;;;-144.32;100.00;68061.97;10345376;28;20066;-77
2022/12/10 13:15:22;;;;;;;42.30;22.80;;;;;;;-144.32;100.00;68061.97;10318096;28;20093;-77
2022/12/10 13:20:28;;;;;;;41.92;23.27;;;;;;;-144.32;100.00;68061.97;10318988;28;20046;-79
2022/12/10 13:25:55;;;;;;;46.67;23.58;;;;;;;-144.32;100.00;68061.97;10314695;28;20994;-79
2022/12/10 13:31:21;;;;;;;44.38;22.98;;;;;;;-144.32;100.00;68061.97;10297962;28;20058;-77
2022/12/10 13:36:36;;;;;;;42.53;22.77;;;;;;;-144.32;100.00;68061.97;10310821;28;20046;-79
2022/12/10 13:47:53;;;;;;;43.85;21.80;;;;;;;-144.32;100.00;68061.97;10319222;28;20078;-81
2022/12/10 13:53:14;;;;;;;45.17;22.50;;;;;;;-144.32;100.00;68061.97;10305780;28;20054;-77
2022/12/10 13:58:55;;;;;;;43.95;22.35;;;;;;;-144.32;100.00;68061.97;10300613;28;20042;-79
2022/12/10 14:04:30;;;;;;;44.30;24.00;;;;;;;-144.32;100.00;68061.97;10308306;28;20550;-79
2022/12/10 14:09:38;;;;;;;44.45;23.48;;;;;;;-144.32;100.00;68061.97;10307610;28;20060;-77
2022/12/10 14:14:45;;;;;;;40.13;22.55;;;;;;;-144.32;100.00;68061.97;10306795;28;20070;-79
2022/12/10 14:19:49;;;;;;;50.97;24.42;;;;;;;-144.32;100.00;68061.97;10298440;28;20042;-78
2022/12/10 14:24:50;;;;;;;43.95;22.08;;;;;;;-144.32;100.00;68061.97;10308369;28;20142;-77
2022/12/10 14:29:57;;;;;;;41.25;21.73;;;;;;;-144.32;100.00;68061.97;10313402;28;20109;-79
2022/12/10 14:34:59;;;;;;;39.72;19.98;;;;;;;-144.32;100.00;68061.97;10307549;28;20559;-78
2022/12/10 14:40:00;;;;;;;38.00;19.13;;;;;;;-144.32;100.00;68061.97;10314617;28;20049;-78
2022/12/10 14:45:04;;;;;;;37.35;18.45;;;;;;;-144.32;100.00;68061.97;10322099;28;20484;-78
2022/12/10 14:50:13;;;;;;;39.10;18.55;;;;;;;-144.32;100.00;68061.97;10324092;28;20046;-78
2022/12/10 14:55:16;;;;;;;33.20;17.30;;;;;;;-144.32;100.00;68061.97;10323314;28;20035;-84
2022/12/10 15:00:19;;;;;;;35.47;18.08;;;;;;;-144.32;100.00;68061.97;10319061;28;20049;-81
2022/12/10 15:05:25;;;;;;;32.60;16.20;;;;;;;-144.32;100.00;68061.97;10324893;28;20042;-83
2022/12/10 15:10:31;;;;;;;27.58;14.15;;;;;;;-144.32;100.00;68061.97;10304524;28;20089;-82
2022/12/10 15:15:41;;;;;;;31.40;14.85;;;;;;;-144.32;100.00;68061.97;10327353;28;20041;-81
2022/12/10 15:20:53;;;;;;;27.65;13.43;;;;;;;-144.32;100.00;68061.97;10320934;28;20062;-82
2022/12/10 15:25:57;;;;;;;23.17;12.57;;;;;;;-144.32;100.00;68061.97;10316137;28;20133;-83
2022/12/10 15:31:09;;;;;;;;;;;;;;;-144.32;100.00;68061.97;10316294;28;20495;-76
2022/12/10 15:36:27;;;;;;;25.08;12.77;;;;;;;-144.32;100.00;68061.97;10337394;28;19910;-79
2022/12/10 15:41:47;;;;;;;25.80;12.80;;;;;;;-144.32;100.00;68061.97;10326344;28;20498;-79
2022/12/10 15:46:58;;;;;;;23.25;11.68;;;;;;;-144.32;100.00;68061.97;10312332;28;20047;-81
2022/12/10 15:51:58;;;;;;;22.55;11.63;;;;;;;-144.32;100.00;68061.97;10321566;28;20048;-81
2022/12/10 15:56:59;;;;;;;19.52;10.82;;;;;;;-144.32;100.00;68061.97;10323566;28;20049;-78
2022/12/10 16:02:02;;;;;;;21.65;11.65;;;;;;;-144.32;100.00;68061.97;10325600;28;20089;-81
2022/12/10 16:07:07;;;;;;;22.92;11.32;;;;;;;-144.32;100.00;68061.97;10355124;28;20122;-79
2022/12/10 16:12:11;;;;;;;23.95;11.95;;;;;;;-144.32;100.00;68061.97;10332782;28;20038;-78
2022/12/10 16:17:11;;;;;;;21.15;11.65;;;;;;;-144.32;100.00;68061.97;10334593;28;20121;-80
2022/12/10 16:22:12;;;;;;;22.27;11.85;;;;;;;-144.32;100.00;68061.97;10336084;28;20085;-77
2022/12/10 16:27:14;;;;;;;23.88;11.95;;;;;;;-144.32;100.00;68061.97;10330493;28;20043;-77
2022/12/10 16:32:15;;;;;;;20.67;10.88;;;;;;;-144.32;100.00;68061.97;10315644;28;20045;-79
2022/12/10 16:37:16;;;;;;;22.35;12.20;;;;;;;-144.32;100.00;68061.97;10321345;28;20045;-80
2022/12/10 16:42:16;;;;;;;22.00;10.90;;;;;;;-144.32;100.00;68061.97;10322954;28;20468;-79
2022/12/10 16:47:17;;;;;;;25.50;12.60;;;;;;;-144.32;100.00;68061.97;10331471;28;20115;-79
2022/12/10 16:52:18;;;;;;;21.33;11.63;;;;;;;-144.32;100.00;68061.97;10318451;28;20052;-79
2022/12/10 16:57:18;;;;;;;21.42;11.57;;;;;;;-144.32;100.00;68061.97;10325577;28;20049;-77
2022/12/10 17:02:20;;;;;;;18.92;10.70;;;;;;;-144.32;100.00;68061.97;10325550;28;20039;-77
2022/12/10 17:07:21;;;;;;;22.75;12.32;;;;;;;-144.32;100.00;68061.97;10322904;28;20047;-79
2022/12/10 17:12:21;;;;;;;23.02;11.88;;;;;;;-144.32;100.00;68061.97;10312663;28;20047;-77
2022/12/10 17:17:22;;;;;;;26.08;12.73;;;;;;;-144.32;100.00;68061.97;10311342;28;20042;-77
2022/12/10 17:22:25;;;;;;;24.48;12.73;;;;;;;-144.32;100.00;68061.97;10314637;28;20045;-80
2022/12/10 17:27:26;;;;;;;28.02;14.07;;;;;;;-144.32;100.00;68061.97;10322592;28;20043;-83
2022/12/10 17:32:29;;;;;;;25.98;13.15;;;;;;;-144.32;100.00;68061.97;10330546;28;20375;-83
2022/12/10 17:37:32;;;;;;;24.08;13.25;;;;;;;-144.32;100.00;68061.97;10311221;28;20038;-81
2022/12/10 17:42:33;;;;;;;26.25;13.27;;;;;;;-144.32;100.00;68061.97;10313843;28;20050;-81
2022/12/10 17:47:35;;;;;;;26.08;12.50;;;;;;;-144.32;100.00;68061.97;10318392;28;20054;-84
2022/12/10 17:52:36;;;;;;;23.13;13.32;;;;;;;-144.32;100.00;68061.97;10320476;28;20060;-82
2022/12/10 17:57:36;;;;;;;27.98;13.45;;;;;;;-144.32;100.00;68061.97;10313659;28;20066;-82
2022/12/10 18:02:37;;;;;;;22.98;12.50;;;;;;;-144.32;100.00;68061.97;10309613;28;20129;-84
2022/12/10 18:07:38;;;;;;;24.75;12.32;;;;;;;-144.32;100.00;68061.97;10322415;28;20843;-82
2022/12/10 18:12:38;;;;;;;25.35;13.40;;;;;;;-144.32;100.00;68061.97;10315185;28;20058;-83
2022/12/10 18:17:39;;;;;;;26.83;12.27;;;;;;;-144.32;100.00;68061.97;10311154;28;20042;-81
2022/12/10 18:22:39;;;;;;;27.98;14.50;;;;;;;-144.32;100.00;68061.97;10312427;28;20046;-83
2022/12/10 18:27:40;;;;;;;29.13;14.32;;;;;;;-144.32;100.00;68061.97;10314940;28;20133;-83
2022/12/10 18:32:40;;;;;;;21.95;12.23;;;;;;;-144.32;100.00;68061.97;10325908;28;20052;-81
2022/12/10 18:37:41;;;;;;;24.67;12.80;;;;;;;-144.32;100.00;68061.97;10324670;28;20137;-78
2022/12/10 18:42:42;;;;;;;25.58;13.57;;;;;;;-144.32;100.00;68061.97;10344220;28;20043;-82
2022/12/10 18:47:43;;;;;;;28.75;13.43;;;;;;;-144.32;100.00;68061.97;10322188;28;20045;-81
2022/12/10 18:52:44;;;;;;;24.65;13.85;;;;;;;-144.32;100.00;68061.97;10313326;28;20046;-83
2022/12/10 18:57:45;;;;;;;28.70;14.52;;;;;;;-144.32;100.00;68061.97;10316652;28;20042;-79
2022/12/10 19:02:49;;;;;;;28.92;14.80;;;;;;;-144.32;100.00;68061.97;10313119;28;20042;-82
2022/12/10 19:07:49;;;;;;;30.40;15.20;;;;;;;-144.32;100.00;68061.97;10316018;28;20498;-83
2022/12/10 19:12:50;;;;;;;29.75;14.73;;;;;;;-144.32;100.00;68061.97;10315187;28;20073;-84
2022/12/10 19:17:51;;;;;;;30.48;15.57;;;;;;;-144.32;100.00;68061.97;10318794;28;20046;-85
2022/12/10 19:22:52;;;;;;;33.92;16.05;;;;;;;-144.32;100.00;68061.97;10318097;28;20046;-81
2022/12/10 19:27:53;;;;;;;29.90;14.95;;;;;;;-144.32;100.00;68061.97;10317484;28;20678;-83
2022/12/10 19:32:53;;;;;;;32.25;16.42;;;;;;;-144.32;100.00;68061.97;10346806;28;20070;-80
2022/12/10 19:37:54;;;;;;;31.13;14.90;;;;;;;-144.32;100.00;68061.97;10355635;28;20078;-80
2022/12/10 19:42:56;;;;;;;31.48;14.80;;;;;;;-144.32;100.00;68061.97;10336014;28;20087;-79
2022/12/10 19:47:57;;;;;;;34.22;16.15;;;;;;;-144.32;100.00;68061.97;10330276;28;20050;-78
2022/12/10 19:53:00;;;;;;;32.28;17.55;;;;;;;-144.32;100.00;68061.97;10316495;28;20106;-78
2022/12/10 19:58:01;;;;;;;34.05;16.30;;;;;;;-144.32;100.00;68061.97;10332323;28;20134;-79
2022/12/10 20:03:02;;;;;;;33.55;17.70;;;;;;;-144.32;100.00;68061.97;10316742;28;20565;-79
2022/12/10 20:08:03;;;;;;;29.92;16.85;;;;;;;-144.32;100.00;68061.97;10311035;28;20054;-79
2022/12/10 20:13:06;;;;;;;33.33;18.08;;;;;;;-144.32;100.00;68061.97;10317451;28;20237;-79
2022/12/10 20:18:08;;;;;;;28.48;16.17;;;;;;;-144.32;100.00;68061.97;10315007;28;20557;-80
2022/12/10 20:23:09;;;;;;;28.70;14.63;;;;;;;-144.32;100.00;68061.97;10306442;28;20089;-80
2022/12/10 20:28:14;;;;;;;28.45;15.10;;;;;;;-144.32;100.00;68061.97;10313427;28;20073;-82
2022/12/10 20:33:15;;;;;;;28.98;15.05;;;;;;;-144.32;100.00;68061.97;10318850;28;20505;-78
2022/12/10 20:38:15;;;;;;;29.08;15.27;;;;;;;-144.32;100.00;68061.97;10328674;28;20090;-79
2022/12/10 20:43:16;;;;;;;28.02;14.88;;;;;;;-144.32;100.00;68061.97;10339801;28;20050;-79
2022/12/10 20:48:16;;;;;;;30.67;14.70;;;;;;;-144.32;100.00;68061.97;10324978;28;20069;-79
2022/12/10 20:53:17;;;;;;;29.73;14.95;;;;;;;-144.32;100.00;68061.97;10332245;28;20110;-80
2022/12/10 20:58:17;;;;;;;34.22;16.65;;;;;;;-144.32;100.00;68061.97;10329063;28;20384;-79
2022/12/10 21:03:20;;;;;;;29.85;16.25;;;;;;;-144.32;100.00;68061.97;10331119;28;20042;-81
2022/12/10 21:08:20;;;;;;;30.00;15.90;;;;;;;-144.32;100.00;68061.97;10340543;28;20096;-80
2022/12/10 21:13:24;;;;;;;29.35;15.57;;;;;;;-144.32;100.00;68061.97;10340361;28;20054;-80
2022/12/10 21:18:26;;;;;;;34.40;17.60;;;;;;;-144.32;100.00;68061.97;10341588;28;20045;-81
2022/12/10 21:23:28;;;;;;;31.63;16.15;;;;;;;-144.32;100.00;68061.97;10358083;28;20066;-81
2022/12/10 21:28:28;;;;;;;28.90;15.48;;;;;;;-144.32;100.00;68061.97;10362530;28;20043;-80
2022/12/10 21:33:29;;;;;;;27.77;14.05;;;;;;;-144.32;100.00;68061.97;10321423;28;20057;-81
2022/12/10 21:38:29;;;;;;;29.70;16.50;;;;;;;-144.32;100.00;68061.97;10314010;28;20053;-81
2022/12/10 21:43:30;;;;;;;28.70;15.55;;;;;;;-144.32;100.00;68061.97;10308116;28;20042;-80
2022/12/10 21:48:30;;;;;;;29.65;15.68;;;;;;;-144.32;100.00;68061.97;10322706;28;20042;-79
2022/12/10 21:53:31;;;;;;;26.80;14.07;;;;;;;-144.32;100.00;68061.97;10315606;28;20098;-81
2022/12/10 21:58:32;;;;;;;32.63;15.05;;;;;;;-144.32;100.00;68061.97;10313287;28;20043;-81
2022/12/10 22:03:32;;;;;;;23.80;13.38;;;;;;;-144.32;100.00;68061.97;10326418;28;20121;-80
2022/12/10 22:08:34;;;;;;;24.42;13.82;;;;;;;-144.32;100.00;68061.97;10317741;28;20038;-80
2022/12/10 22:13:35;;;;;;;39.35;18.80;;;;;;;-144.32;100.00;68061.97;10323757;28;20043;-82
2022/12/10 22:18:36;;;;;;;27.77;14.50;;;;;;;-144.32;100.00;68061.97;10332756;28;20494;-80
2022/12/10 22:23:36;;;;;;;30.38;15.13;;;;;;;-144.32;100.00;68061.97;10320627;28;20045;-82
2022/12/10 22:28:37;;;;;;;32.80;16.42;;;;;;;-144.32;100.00;68061.97;10323240;28;20051;-81
2022/12/10 22:33:38;;;;;;;24.83;12.77;;;;;;;-144.32;100.00;68061.97;10325768;28;20133;-81
2022/12/10 22:38:38;;;;;;;29.95;16.17;;;;;;;-144.32;100.00;68061.97;10316668;28;20408;-81
2022/12/10 22:43:39;;;;;;;27.98;15.18;;;;;;;-144.32;100.00;68061.97;10319566;28;20458;-79
2022/12/10 22:48:39;;;;;;;27.60;13.63;;;;;;;-144.32;100.00;68061.97;10355008;28;20043;-78
2022/12/10 22:53:40;;;;;;;30.08;13.68;;;;;;;-144.32;100.00;68061.97;10358006;28;20026;-78
2022/12/10 22:58:41;;;;;;;29.15;13.95;;;;;;;-144.32;100.00;68061.97;10367813;28;20454;-79
2022/12/10 23:03:41;;;;;;;30.23;14.60;;;;;;;-144.32;100.00;68061.97;10314663;28;20134;-82
2022/12/10 23:08:42;;;;;;;26.80;13.90;;;;;;;-144.32;100.00;68061.97;10330809;28;20069;-81
2022/12/10 23:13:43;;;;;;;28.52;14.70;;;;;;;-144.32;100.00;68061.97;10323849;28;20043;-80